Islander — WDA4825 — position and weather

sailwx.info

Track history (hours):
 
Tides and Currents Weather Stations Pressure Air Temp Water Temp Dewpoint Dewpoint Depression Visibility Wind Speed Wind Dir Waves Ship Positions

Islander

Owner: SUPER BOAT INC, VENTURA, CA. More information available from US FCC via Universal Licensing System and Coast Guard Vessel Documentation Center.

Last reported at 2017-Dec-11 16:57 UTC. Time now 2017-Dec-14 15:22 UTC.
Position N 34°15' W 119°16'.

Length 20 m; draft 2.1 m.

Type: Passenger vessel. MMSI: 366813530.

Date/timePositionNaut miles runAvg speedWind from/ knotsBaromVisibWave heightAir tempDewpointWater temp
2017-Dec-11 16:57N 34°15' W 119°16'0 0.0
2017-Dec-11 16:29N 34°15' W 119°16'0 0.0
2017-Dec-11 15:56N 34°15' W 119°16'0 0.0
2017-Dec-11 15:30N 34°15' W 119°16'0 0.0
2017-Dec-11 15:00N 34°15' W 119°16'0 0.0
2017-Dec-11 14:29N 34°15' W 119°16'0 0.0
2017-Dec-11 13:56N 34°15' W 119°16'0 0.0
2017-Dec-11 13:29N 34°15' W 119°16'0 0.0
2017-Dec-11 12:54N 34°15' W 119°16'0 0.0
2017-Dec-11 12:30N 34°15' W 119°16'0 0.0
2017-Dec-11 11:59N 34°15' W 119°16'0 0.0
2017-Dec-11 11:30N 34°15' W 119°16'0 0.0
2017-Dec-11 10:57N 34°15' W 119°16'0 0.0
2017-Dec-11 10:30N 34°15' W 119°16'0 0.0
2017-Dec-11 09:56N 34°15' W 119°16'0 0.0
2017-Dec-11 09:24N 34°15' W 119°16'0 0.0
2017-Dec-11 08:56N 34°15' W 119°16'0 0.0
2017-Dec-11 08:30N 34°15' W 119°16'0 0.0
2017-Dec-11 08:00N 34°15' W 119°16'0 0.0
2017-Dec-11 07:30N 34°15' W 119°16'0 0.0
2017-Dec-11 06:59N 34°15' W 119°16'0 0.0
2017-Dec-11 06:28N 34°15' W 119°16'0 0.0
2017-Dec-11 05:56N 34°15' W 119°16'0 0.0
2017-Dec-11 05:29N 34°15' W 119°16'0 0.0
2017-Dec-11 04:58N 34°15' W 119°16'0 0.0
2017-Dec-11 04:25N 34°15' W 119°16'0 0.0
2017-Dec-11 03:59N 34°15' W 119°16'0 0.0
2017-Dec-11 03:26N 34°15' W 119°16'0 0.0
2017-Dec-11 02:55N 34°15' W 119°16'0 0.0
2017-Dec-11 02:30N 34°15' W 119°16'0 0.0
2017-Dec-11 01:58N 34°15' W 119°16'0 0.0
2017-Dec-11 01:29N 34°15' W 119°16'0 0.0
2017-Dec-11 00:52N 34°15' W 119°16'0 0.0
2017-Dec-11 00:29N 34°15' W 119°16'510.6
2017-Dec-11 00:01N 34°12' W 119°21'1019.3
2017-Dec-10 23:29N 34°05' W 119°30'4 7.3
2017-Dec-10 23:00N 34°03' W 119°33'713.5
2017-Dec-10 22:31N 34°01' W 119°41'4 7.7
2017-Dec-10 22:00N 34°02' W 119°37'0 0.0
2017-Dec-10 21:29N 34°02' W 119°37'0 0.0
2017-Dec-10 20:59N 34°02' W 119°37'0 0.0
2017-Dec-10 20:30N 34°02' W 119°37'0 0.1
2017-Dec-10 20:00N 34°02' W 119°36'0 0.0
2017-Dec-10 19:28N 34°02' W 119°36'0 0.3
2017-Dec-10 19:00N 34°02' W 119°37'2 4.9
2017-Dec-10 18:30N 34°02' W 119°40'714.2
2017-Dec-10 18:00N 34°04' W 119°31'1020.1
2017-Dec-10 17:29N 34°11' W 119°22'611.0
2017-Dec-10 16:56N 34°15' W 119°16'0 0.0
2017-Dec-10 16:30N 34°15' W 119°16'0 0.0
2017-Dec-10 15:59N 34°15' W 119°16'0 0.0
2017-Dec-10 15:29N 34°15' W 119°16'0 0.0
2017-Dec-10 14:59N 34°15' W 119°16'0 0.0
2017-Dec-10 14:29N 34°15' W 119°16'0 0.0
2017-Dec-10 14:00N 34°15' W 119°16'0 0.0
2017-Dec-10 13:28N 34°15' W 119°16'0 0.0
2017-Dec-10 12:54N 34°15' W 119°16'0 0.0
2017-Dec-10 12:19N 34°15' W 119°16'0 0.0
2017-Dec-10 11:55N 34°15' W 119°16'0 0.0
2017-Dec-10 11:26N 34°15' W 119°16'0 0.0
2017-Dec-10 11:00N 34°15' W 119°16'0 0.0
2017-Dec-10 10:26N 34°15' W 119°16'0 0.0
2017-Dec-10 09:58N 34°15' W 119°16'0 0.0
2017-Dec-10 09:21N 34°15' W 119°16'0 0.0
2017-Dec-10 08:57N 34°15' W 119°16'0 0.0
2017-Dec-10 08:29N 34°15' W 119°16'0 0.0
2017-Dec-10 07:57N 34°15' W 119°16'0 0.0
2017-Dec-10 07:25N 34°15' W 119°16'0 0.0
2017-Dec-10 06:52N 34°15' W 119°16'0 0.0
2017-Dec-10 06:30N 34°15' W 119°16'0 0.0
2017-Dec-10 05:59N 34°15' W 119°16'0 0.0
2017-Dec-10 05:28N 34°15' W 119°16'0 0.0
2017-Dec-10 04:56N 34°15' W 119°16'0 0.0
2017-Dec-10 04:26N 34°15' W 119°16'0 0.0
2017-Dec-10 03:57N 34°15' W 119°16'0 0.0
2017-Dec-10 03:28N 34°15' W 119°16'0 0.0
2017-Dec-10 02:59N 34°15' W 119°16'0 0.0
2017-Dec-10 02:26N 34°15' W 119°16'0 0.0
2017-Dec-10 02:00N 34°15' W 119°16'0 0.0
2017-Dec-10 01:29N 34°15' W 119°16'0 0.0
2017-Dec-10 00:59N 34°15' W 119°16'0 0.0
2017-Dec-10 00:28N 34°15' W 119°16'612.2
2017-Dec-10 00:00N 34°12' W 119°22'1019.5
2017-Dec-09 23:29N 34°05' W 119°31'5 9.9
2017-Dec-09 23:00N 34°03' W 119°36'5 9.2
2017-Dec-09 22:29N 34°01' W 119°41'0 0.0
2017-Dec-09 21:58N 34°01' W 119°41'0 0.0
2017-Dec-09 21:29N 34°01' W 119°41'0 0.0
2017-Dec-09 20:59N 34°01' W 119°41'0 0.0
2017-Dec-09 20:29N 34°01' W 119°41'0 0.0
2017-Dec-09 19:58N 34°01' W 119°41'0 0.0
2017-Dec-09 19:30N 34°01' W 119°41'1 2.4
2017-Dec-09 19:00N 34°02' W 119°40'611.2
2017-Dec-09 18:30N 34°03' W 119°33'5 9.2
2017-Dec-09 18:00N 34°06' W 119°29'815.2
2017-Dec-09 17:30N 34°11' W 119°21'611.7
2017-Dec-09 16:58N 34°15' W 119°16'0 0.0
2017-Dec-09 16:30N 34°15' W 119°16'0 0.1
2017-Dec-09 16:00N 34°15' W 119°16'0 0.1
2017-Dec-09 15:28N 34°15' W 119°16'0 0.0
2017-Dec-09 14:57N 34°15' W 119°16'0 0.0
2017-Dec-09 14:28N 34°15' W 119°16'0 0.0
2017-Dec-09 13:59N 34°15' W 119°16'0 0.0
2017-Dec-09 13:27N 34°15' W 119°16'0 0.0
2017-Dec-09 12:59N 34°15' W 119°16'0 0.0
2017-Dec-09 12:29N 34°15' W 119°16'0 0.0
2017-Dec-09 11:57N 34°15' W 119°16'0 0.0
2017-Dec-09 11:29N 34°15' W 119°16'0 0.0
2017-Dec-09 11:00N 34°15' W 119°16'0 0.0
2017-Dec-09 10:30N 34°15' W 119°16'0 0.0
2017-Dec-09 10:00N 34°15' W 119°16'0 0.0
2017-Dec-09 09:30N 34°15' W 119°16'0 0.0
2017-Dec-09 09:00N 34°15' W 119°16'0 0.0
2017-Dec-09 08:28N 34°15' W 119°16'0 0.0
2017-Dec-09 08:00N 34°15' W 119°16'0 0.0
2017-Dec-09 07:25N 34°15' W 119°16'0 0.0
2017-Dec-09 07:00N 34°15' W 119°16'0 0.0
2017-Dec-09 06:28N 34°15' W 119°16'0 0.0
2017-Dec-09 06:00N 34°15' W 119°16'0 0.0
2017-Dec-09 05:30N 34°15' W 119°16'0 0.0
2017-Dec-09 05:00N 34°15' W 119°16'0 0.0
2017-Dec-09 04:24N 34°15' W 119°16'0 0.0
2017-Dec-09 03:56N 34°15' W 119°16'0 0.0
2017-Dec-09 03:28N 34°15' W 119°16'0 0.0
2017-Dec-09 02:54N 34°15' W 119°16'0 0.0
2017-Dec-09 02:29N 34°15' W 119°16'0 0.0
2017-Dec-09 01:57N 34°15' W 119°16'0 0.0
2017-Dec-09 01:30N 34°15' W 119°16'0 0.0
2017-Dec-09 00:59N 34°15' W 119°16'0 0.0
2017-Dec-09 00:27N 34°15' W 119°16'3 7.3
2017-Dec-09 00:00N 34°13' W 119°19'1021.0
2017-Dec-08 23:30N 34°06' W 119°29'611.0
2017-Dec-08 22:59N 34°03' W 119°35'610.8
2017-Dec-08 22:29N 34°01' W 119°41'1 2.1
2017-Dec-08 22:00N 34°02' W 119°42'0 0.0
2017-Dec-08 21:28N 34°02' W 119°42'0 0.0
2017-Dec-08 20:59N 34°02' W 119°42'0 0.0
2017-Dec-08 20:27N 34°02' W 119°42'0 0.0
2017-Dec-08 19:56N 34°02' W 119°42'0 1.1
2017-Dec-08 19:30N 34°02' W 119°42'1 1.0
2017-Dec-08 18:59N 34°02' W 119°41'2 4.7
2017-Dec-08 18:29N 34°02' W 119°38'612.4
2017-Dec-08 18:01N 34°04' W 119°32'1121.3
2017-Dec-08 17:30N 34°11' W 119°21'611.5
2017-Dec-08 16:59N 34°15' W 119°16'0 0.0
2017-Dec-08 16:30N 34°15' W 119°16'0 0.0
2017-Dec-08 15:59N 34°15' W 119°16'0 0.0
2017-Dec-08 15:31N 34°15' W 119°16'0 0.0
2017-Dec-08 15:00N 34°15' W 119°16'0 0.0
2017-Dec-08 14:30N 34°15' W 119°16'0 0.0
2017-Dec-08 14:00N 34°15' W 119°16'0 0.0
2017-Dec-08 13:28N 34°15' W 119°16'0 0.0
2017-Dec-08 13:00N 34°15' W 119°16'0 0.0
2017-Dec-08 12:29N 34°15' W 119°16'0 0.0
2017-Dec-08 12:00N 34°15' W 119°16'0 0.0
2017-Dec-08 11:30N 34°15' W 119°16'0 0.0
2017-Dec-08 11:00N 34°15' W 119°16'0 0.0
2017-Dec-08 10:31N 34°15' W 119°16'0 0.0
2017-Dec-08 09:59N 34°15' W 119°16'0 0.0
2017-Dec-08 09:31N 34°15' W 119°16'0 0.0
2017-Dec-08 09:00N 34°15' W 119°16'0 0.0
2017-Dec-08 08:30N 34°15' W 119°16'0 0.0
2017-Dec-08 08:00N 34°15' W 119°16'0 0.0
2017-Dec-08 07:30N 34°15' W 119°16'0 0.0
2017-Dec-08 07:01N 34°15' W 119°16'0 0.0
2017-Dec-08 06:30N 34°15' W 119°16'0 0.0
2017-Dec-08 06:00N 34°15' W 119°16'0 0.0
2017-Dec-08 05:30N 34°15' W 119°16'0 0.0
2017-Dec-08 05:00N 34°15' W 119°16'0 0.0
2017-Dec-08 04:27N 34°15' W 119°16'0 0.0
2017-Dec-08 04:00N 34°15' W 119°16'0 0.0
2017-Dec-08 03:30N 34°15' W 119°16'0 0.0
2017-Dec-08 02:56N 34°15' W 119°16'0 0.0
2017-Dec-08 02:30N 34°15' W 119°16'0 0.0
2017-Dec-08 01:55N 34°15' W 119°16'0 0.0
2017-Dec-08 01:29N 34°15' W 119°16'0 0.0
2017-Dec-08 01:00N 34°15' W 119°16'0 0.0
2017-Dec-08 00:30N 34°15' W 119°16'0 0.0
2017-Dec-08 00:00N 34°15' W 119°16'0 0.0
2017-Dec-07 23:28N 34°15' W 119°16'0 0.0
2017-Dec-07 23:00N 34°15' W 119°16'0 0.0
2017-Dec-07 22:25N 34°15' W 119°16'0 0.0
2017-Dec-07 22:00N 34°15' W 119°16'0 0.0
2017-Dec-07 21:30N 34°15' W 119°16'0 0.0
2017-Dec-07 20:58N 34°15' W 119°16'0 0.0
2017-Dec-07 20:25N 34°15' W 119°16'0 0.0
2017-Dec-07 20:00N 34°15' W 119°16'0 0.0
2017-Dec-07 19:29N 34°15' W 119°16'0 0.0
2017-Dec-07 19:00N 34°15' W 119°16'0 0.0
2017-Dec-07 18:30N 34°15' W 119°16'0 0.0
2017-Dec-07 18:00N 34°15' W 119°16'0 0.0
2017-Dec-07 17:29N 34°15' W 119°16'0 0.0
2017-Dec-07 17:00N 34°15' W 119°16'0 0.0
2017-Dec-07 16:30N 34°15' W 119°16'0 0.0
2017-Dec-07 16:00N 34°15' W 119°16'0 0.0
2017-Dec-07 15:30N 34°15' W 119°16'0 0.0
2017-Dec-07 15:00N 34°15' W 119°16'0 0.0
2017-Dec-07 14:31N 34°15' W 119°16'0 0.0
2017-Dec-07 14:00N 34°15' W 119°16'0 0.0
2017-Dec-07 13:30N 34°15' W 119°16'0 0.0
2017-Dec-07 12:59N 34°15' W 119°16'0 0.0
2017-Dec-07 12:30N 34°15' W 119°16'0 0.0
2017-Dec-07 12:00N 34°15' W 119°16'0 0.0
2017-Dec-07 11:30N 34°15' W 119°16'0 0.0
2017-Dec-07 11:00N 34°15' W 119°16'0 0.0
2017-Dec-07 10:30N 34°15' W 119°16'0 0.0
2017-Dec-07 10:00N 34°15' W 119°16'0 0.0
2017-Dec-07 09:31N 34°15' W 119°16'0 0.0
2017-Dec-07 09:00N 34°15' W 119°16'0 0.0
2017-Dec-07 08:30N 34°15' W 119°16'0 0.0
2017-Dec-07 08:00N 34°15' W 119°16'0 0.0
2017-Dec-07 07:30N 34°15' W 119°16'0 0.0
2017-Dec-07 07:00N 34°15' W 119°16'0 0.0
2017-Dec-07 06:30N 34°15' W 119°16'0 0.0
2017-Dec-07 05:58N 34°15' W 119°16'0 0.0
2017-Dec-07 05:27N 34°15' W 119°16'0 0.0
2017-Dec-07 05:00N 34°15' W 119°16'0 0.0
2017-Dec-07 04:30N 34°15' W 119°16'0 0.0
2017-Dec-07 04:00N 34°15' W 119°16'0 0.0
2017-Dec-07 03:30N 34°15' W 119°16'0 0.0
2017-Dec-07 02:59N 34°15' W 119°16'0 0.0
2017-Dec-07 02:30N 34°15' W 119°16'0 0.0
2017-Dec-07 02:00N 34°15' W 119°16'0 0.0
2017-Dec-07 01:30N 34°15' W 119°16'0 0.0
2017-Dec-07 01:00N 34°15' W 119°16'0 0.0
2017-Dec-07 00:30N 34°15' W 119°16'0 0.0
2017-Dec-06 23:59N 34°15' W 119°16'0 0.0
2017-Dec-06 23:30N 34°15' W 119°16'0 0.0
2017-Dec-06 23:00N 34°15' W 119°16'0 0.0
2017-Dec-06 22:30N 34°15' W 119°16'0 0.0
2017-Dec-06 22:00N 34°15' W 119°16'0 0.0
2017-Dec-06 21:30N 34°15' W 119°16'0 0.0
2017-Dec-06 21:00N 34°15' W 119°16'  
2017-Dec-04 10:27N 34°15' W 119°16'0 0.0
2017-Dec-04 09:59N 34°15' W 119°16'0 0.0
2017-Dec-04 09:29N 34°15' W 119°16'0 0.0
2017-Dec-04 09:00N 34°15' W 119°16'0 0.0
2017-Dec-04 08:31N 34°15' W 119°16'0 0.0
2017-Dec-04 08:00N 34°15' W 119°16'0 0.0
2017-Dec-04 07:30N 34°15' W 119°16'0 0.0
2017-Dec-04 07:01N 34°15' W 119°16'0 0.0
2017-Dec-04 06:30N 34°15' W 119°16'0 0.0
2017-Dec-04 06:00N 34°15' W 119°16'0 0.0
2017-Dec-04 05:30N 34°15' W 119°16'0 0.0
2017-Dec-04 05:01N 34°15' W 119°16'0 0.0
2017-Dec-04 04:30N 34°15' W 119°16'0 0.0
2017-Dec-04 04:00N 34°15' W 119°16'0 0.0
2017-Dec-04 03:30N 34°15' W 119°16'0 0.0
2017-Dec-04 03:00N 34°15' W 119°16'0 0.0
2017-Dec-04 02:30N 34°15' W 119°16'0 0.0
2017-Dec-04 02:01N 34°15' W 119°16'0 0.0
2017-Dec-04 01:30N 34°15' W 119°16'0 0.0
2017-Dec-04 00:58N 34°15' W 119°16'611.8
2017-Dec-04 00:29N 34°11' W 119°21'816.9
2017-Dec-04 00:00N 34°06' W 119°29'5 9.1
2017-Dec-03 23:29N 34°03' W 119°33'2 3.8
2017-Dec-03 23:00N 34°03' W 119°36'5 9.7
2017-Dec-03 22:29N 34°01' W 119°41'0 0.1
2017-Dec-03 22:00N 34°01' W 119°41'0 0.0
2017-Dec-03 21:30N 34°01' W 119°41'0 0.0
2017-Dec-03 21:00N 34°01' W 119°41'0 0.0
2017-Dec-03 20:29N 34°01' W 119°41'0 0.0
2017-Dec-03 20:00N 34°01' W 119°41'0 0.0
2017-Dec-03 19:30N 34°01' W 119°41'0 0.1
2017-Dec-03 19:00N 34°01' W 119°41'510.6
2017-Dec-03 18:30N 34°03' W 119°35'5 9.6
2017-Dec-03 17:59N 34°06' W 119°30'918.1
2017-Dec-03 17:30N 34°11' W 119°22'610.5
2017-Dec-03 16:56N 34°15' W 119°16'0 0.0
2017-Dec-03 16:30N 34°15' W 119°16'0 0.0
2017-Dec-03 15:56N 34°15' W 119°16'0 0.0
2017-Dec-03 15:30N 34°15' W 119°16'0 0.0
2017-Dec-03 15:00N 34°15' W 119°16'0 0.0
2017-Dec-03 14:30N 34°15' W 119°16'0 0.0
2017-Dec-03 13:59N 34°15' W 119°16'0 0.0
2017-Dec-03 13:27N 34°15' W 119°16'0 0.0
2017-Dec-03 13:00N 34°15' W 119°16'0 0.0
2017-Dec-03 12:30N 34°15' W 119°16'0 0.0
2017-Dec-03 12:00N 34°15' W 119°16'0 0.0
2017-Dec-03 11:28N 34°15' W 119°16'0 0.0
2017-Dec-03 10:58N 34°15' W 119°16'0 0.0
2017-Dec-03 10:30N 34°15' W 119°16'0 0.0
2017-Dec-03 10:00N 34°15' W 119°16'0 0.0
2017-Dec-03 09:30N 34°15' W 119°16'0 0.0
2017-Dec-03 09:00N 34°15' W 119°16'0 0.0
2017-Dec-03 08:30N 34°15' W 119°16'0 0.0
2017-Dec-03 07:58N 34°15' W 119°16'0 0.0
2017-Dec-03 07:30N 34°15' W 119°16'0 0.0
2017-Dec-03 07:00N 34°15' W 119°16'0 0.0
2017-Dec-03 06:29N 34°15' W 119°16'0 0.0
2017-Dec-03 06:00N 34°15' W 119°16'0 0.0
2017-Dec-03 05:30N 34°15' W 119°16'0 0.0
2017-Dec-03 04:59N 34°15' W 119°16'0 0.0
2017-Dec-03 04:30N 34°15' W 119°16'0 0.0
2017-Dec-03 04:00N 34°15' W 119°16'0 0.0
2017-Dec-03 03:29N 34°15' W 119°16'0 0.0
2017-Dec-03 03:00N 34°15' W 119°16'0 0.0
2017-Dec-03 02:28N 34°15' W 119°16'0 0.0
2017-Dec-03 01:55N 34°15' W 119°16'0 0.0
2017-Dec-03 01:25N 34°15' W 119°16'0 0.1
2017-Dec-03 01:00N 34°15' W 119°16'815.4
2017-Dec-03 00:30N 34°10' W 119°23'815.1
2017-Dec-03 00:00N 34°05' W 119°30'3 6.6
2017-Dec-02 23:29N 34°03' W 119°33'1 1.9
2017-Dec-02 23:00N 34°04' W 119°34'612.2
2017-Dec-02 22:30N 34°01' W 119°41'0 0.0
2017-Dec-02 22:00N 34°01' W 119°41'0 0.1
2017-Dec-02 21:30N 34°01' W 119°41'1 1.9
2017-Dec-02 21:00N 34°02' W 119°40'0 0.3
2017-Dec-02 20:30N 34°02' W 119°41'0 0.1
2017-Dec-02 20:00N 34°02' W 119°41'1 1.8
2017-Dec-02 19:30N 34°01' W 119°41'4 8.4
2017-Dec-02 19:00N 34°03' W 119°36'3 5.0
2017-Dec-02 18:30N 34°03' W 119°33'612.5
2017-Dec-02 18:01N 34°07' W 119°28'917.0
2017-Dec-02 17:30N 34°13' W 119°20'4 7.8
2017-Dec-02 17:00N 34°15' W 119°16'0 0.0
2017-Dec-02 16:29N 34°15' W 119°16'0 0.0
2017-Dec-02 15:58N 34°15' W 119°16'0 0.0
2017-Dec-02 15:30N 34°15' W 119°16'0 0.0
2017-Dec-02 14:59N 34°15' W 119°16'0 0.0
2017-Dec-02 14:30N 34°15' W 119°16'0 0.0
2017-Dec-02 13:57N 34°15' W 119°16'0 0.0
2017-Dec-02 13:29N 34°15' W 119°16'0 0.0
2017-Dec-02 13:00N 34°15' W 119°16'0 0.0
2017-Dec-02 12:29N 34°15' W 119°16'0 0.0
2017-Dec-02 11:59N 34°15' W 119°16'0 0.0
2017-Dec-02 11:30N 34°15' W 119°16'0 0.0
2017-Dec-02 11:00N 34°15' W 119°16'0 0.0
2017-Dec-02 10:30N 34°15' W 119°16'0 0.0
2017-Dec-02 10:00N 34°15' W 119°16'0 0.0
2017-Dec-02 09:29N 34°15' W 119°16'0 0.0
2017-Dec-02 09:00N 34°15' W 119°16'0 0.0
2017-Dec-02 08:30N 34°15' W 119°16'0 0.0
2017-Dec-02 08:00N 34°15' W 119°16'0 0.0
2017-Dec-02 07:30N 34°15' W 119°16'0 0.0
2017-Dec-02 07:00N 34°15' W 119°16'0 0.0
2017-Dec-02 06:30N 34°15' W 119°16'0 0.0
2017-Dec-02 05:59N 34°15' W 119°16'0 0.0
2017-Dec-02 05:30N 34°15' W 119°16'0 0.0
2017-Dec-02 05:00N 34°15' W 119°16'0 0.0
2017-Dec-02 04:30N 34°15' W 119°16'0 0.0
2017-Dec-02 04:00N 34°15' W 119°16'0 0.0
2017-Dec-02 03:30N 34°15' W 119°16'0 0.0
2017-Dec-02 03:00N 34°15' W 119°16'0 0.0
2017-Dec-02 02:30N 34°15' W 119°16'0 0.0
2017-Dec-02 02:00N 34°15' W 119°16'0 0.0
2017-Dec-02 01:29N 34°15' W 119°16'0 0.0
2017-Dec-02 01:00N 34°15' W 119°16'5 9.9
2017-Dec-02 00:30N 34°12' W 119°21'714.5
2017-Dec-01 23:59N 34°07' W 119°28'6 9.3
2017-Dec-01 23:19N 34°03' W 119°33'0 0.0
2017-Dec-01 23:00N 34°03' W 119°33'713.5
2017-Dec-01 22:30N 34°01' W 119°41'0 0.1
2017-Dec-01 22:00N 34°01' W 119°41'0 0.0
2017-Dec-01 21:29N 34°01' W 119°41'0 0.0
2017-Dec-01 21:00N 34°01' W 119°41'0 0.1
2017-Dec-01 20:30N 34°01' W 119°41'0 0.0
2017-Dec-01 20:00N 34°01' W 119°41'510.0
2017-Dec-01 19:30N 34°03' W 119°36'2 4.0
2017-Dec-01 19:00N 34°03' W 119°33'510.5
2017-Dec-01 18:30N 34°06' W 119°28'5 9.7
2017-Dec-01 17:58N 34°10' W 119°24'612.4
2017-Dec-01 17:30N 34°13' W 119°19'3 5.3
2017-Dec-01 17:00N 34°15' W 119°16'  
Track history (hours):
 
Tides and Currents Weather Stations Pressure Air Temp Water Temp Dewpoint Dewpoint Depression Visibility Wind Speed Wind Dir Waves Ship Positions

Islander

Owner: SUPER BOAT INC, VENTURA, CA. More information available from US FCC via Universal Licensing System and Coast Guard Vessel Documentation Center.

Last reported at 2017-Dec-11 16:57 UTC. Time now 2017-Dec-14 15:22 UTC.
Position N 34°15' W 119°16'.

Length 20 m; draft 2.1 m.

Type: Passenger vessel. MMSI: 366813530.

Date/timePositionNaut miles runAvg speedWind from/ knotsBaromVisibWave heightAir tempDewpointWater temp
2017-Dec-11 16:57N 34°15' W 119°16'0 0.0
2017-Dec-11 16:29N 34°15' W 119°16'0 0.0
2017-Dec-11 15:56N 34°15' W 119°16'0 0.0
2017-Dec-11 15:30N 34°15' W 119°16'0 0.0
2017-Dec-11 15:00N 34°15' W 119°16'0 0.0
2017-Dec-11 14:29N 34°15' W 119°16'0 0.0
2017-Dec-11 13:56N 34°15' W 119°16'0 0.0
2017-Dec-11 13:29N 34°15' W 119°16'0 0.0
2017-Dec-11 12:54N 34°15' W 119°16'0 0.0
2017-Dec-11 12:30N 34°15' W 119°16'0 0.0
2017-Dec-11 11:59N 34°15' W 119°16'0 0.0
2017-Dec-11 11:30N 34°15' W 119°16'0 0.0
2017-Dec-11 10:57N 34°15' W 119°16'0 0.0
2017-Dec-11 10:30N 34°15' W 119°16'0 0.0
2017-Dec-11 09:56N 34°15' W 119°16'0 0.0
2017-Dec-11 09:24N 34°15' W 119°16'0 0.0
2017-Dec-11 08:56N 34°15' W 119°16'0 0.0
2017-Dec-11 08:30N 34°15' W 119°16'0 0.0
2017-Dec-11 08:00N 34°15' W 119°16'0 0.0
2017-Dec-11 07:30N 34°15' W 119°16'0 0.0
2017-Dec-11 06:59N 34°15' W 119°16'0 0.0
2017-Dec-11 06:28N 34°15' W 119°16'0 0.0
2017-Dec-11 05:56N 34°15' W 119°16'0 0.0
2017-Dec-11 05:29N 34°15' W 119°16'0 0.0
2017-Dec-11 04:58N 34°15' W 119°16'0 0.0
2017-Dec-11 04:25N 34°15' W 119°16'0 0.0
2017-Dec-11 03:59N 34°15' W 119°16'0 0.0
2017-Dec-11 03:26N 34°15' W 119°16'0 0.0
2017-Dec-11 02:55N 34°15' W 119°16'0 0.0
2017-Dec-11 02:30N 34°15' W 119°16'0 0.0
2017-Dec-11 01:58N 34°15' W 119°16'0 0.0
2017-Dec-11 01:29N 34°15' W 119°16'0 0.0
2017-Dec-11 00:52N 34°15' W 119°16'0 0.0
2017-Dec-11 00:29N 34°15' W 119°16'510.6
2017-Dec-11 00:01N 34°12' W 119°21'1019.3
2017-Dec-10 23:29N 34°05' W 119°30'4 7.3
2017-Dec-10 23:00N 34°03' W 119°33'713.5
2017-Dec-10 22:31N 34°01' W 119°41'4 7.7
2017-Dec-10 22:00N 34°02' W 119°37'0 0.0
2017-Dec-10 21:29N 34°02' W 119°37'0 0.0
2017-Dec-10 20:59N 34°02' W 119°37'0 0.0
2017-Dec-10 20:30N 34°02' W 119°37'0 0.1
2017-Dec-10 20:00N 34°02' W 119°36'0 0.0
2017-Dec-10 19:28N 34°02' W 119°36'0 0.3
2017-Dec-10 19:00N 34°02' W 119°37'2 4.9
2017-Dec-10 18:30N 34°02' W 119°40'714.2
2017-Dec-10 18:00N 34°04' W 119°31'1020.1
2017-Dec-10 17:29N 34°11' W 119°22'611.0
2017-Dec-10 16:56N 34°15' W 119°16'0 0.0
2017-Dec-10 16:30N 34°15' W 119°16'0 0.0
2017-Dec-10 15:59N 34°15' W 119°16'0 0.0
2017-Dec-10 15:29N 34°15' W 119°16'0 0.0
2017-Dec-10 14:59N 34°15' W 119°16'0 0.0
2017-Dec-10 14:29N 34°15' W 119°16'0 0.0
2017-Dec-10 14:00N 34°15' W 119°16'0 0.0
2017-Dec-10 13:28N 34°15' W 119°16'0 0.0
2017-Dec-10 12:54N 34°15' W 119°16'0 0.0
2017-Dec-10 12:19N 34°15' W 119°16'0 0.0
2017-Dec-10 11:55N 34°15' W 119°16'0 0.0
2017-Dec-10 11:26N 34°15' W 119°16'0 0.0
2017-Dec-10 11:00N 34°15' W 119°16'0 0.0
2017-Dec-10 10:26N 34°15' W 119°16'0 0.0
2017-Dec-10 09:58N 34°15' W 119°16'0 0.0
2017-Dec-10 09:21N 34°15' W 119°16'0 0.0
2017-Dec-10 08:57N 34°15' W 119°16'0 0.0
2017-Dec-10 08:29N 34°15' W 119°16'0 0.0
2017-Dec-10 07:57N 34°15' W 119°16'0 0.0
2017-Dec-10 07:25N 34°15' W 119°16'0 0.0
2017-Dec-10 06:52N 34°15' W 119°16'0 0.0
2017-Dec-10 06:30N 34°15' W 119°16'0 0.0
2017-Dec-10 05:59N 34°15' W 119°16'0 0.0
2017-Dec-10 05:28N 34°15' W 119°16'0 0.0
2017-Dec-10 04:56N 34°15' W 119°16'0 0.0
2017-Dec-10 04:26N 34°15' W 119°16'0 0.0
2017-Dec-10 03:57N 34°15' W 119°16'0 0.0
2017-Dec-10 03:28N 34°15' W 119°16'0 0.0
2017-Dec-10 02:59N 34°15' W 119°16'0 0.0
2017-Dec-10 02:26N 34°15' W 119°16'0 0.0
2017-Dec-10 02:00N 34°15' W 119°16'0 0.0
2017-Dec-10 01:29N 34°15' W 119°16'0 0.0
2017-Dec-10 00:59N 34°15' W 119°16'0 0.0
2017-Dec-10 00:28N 34°15' W 119°16'612.2
2017-Dec-10 00:00N 34°12' W 119°22'1019.5
2017-Dec-09 23:29N 34°05' W 119°31'5 9.9
2017-Dec-09 23:00N 34°03' W 119°36'5 9.2
2017-Dec-09 22:29N 34°01' W 119°41'0 0.0
2017-Dec-09 21:58N 34°01' W 119°41'0 0.0
2017-Dec-09 21:29N 34°01' W 119°41'0 0.0
2017-Dec-09 20:59N 34°01' W 119°41'0 0.0
2017-Dec-09 20:29N 34°01' W 119°41'0 0.0
2017-Dec-09 19:58N 34°01' W 119°41'0 0.0
2017-Dec-09 19:30N 34°01' W 119°41'1 2.4
2017-Dec-09 19:00N 34°02' W 119°40'611.2
2017-Dec-09 18:30N 34°03' W 119°33'5 9.2
2017-Dec-09 18:00N 34°06' W 119°29'815.2
2017-Dec-09 17:30N 34°11' W 119°21'611.7
2017-Dec-09 16:58N 34°15' W 119°16'0 0.0
2017-Dec-09 16:30N 34°15' W 119°16'0 0.1
2017-Dec-09 16:00N 34°15' W 119°16'0 0.1
2017-Dec-09 15:28N 34°15' W 119°16'0 0.0
2017-Dec-09 14:57N 34°15' W 119°16'0 0.0
2017-Dec-09 14:28N 34°15' W 119°16'0 0.0
2017-Dec-09 13:59N 34°15' W 119°16'0 0.0
2017-Dec-09 13:27N 34°15' W 119°16'0 0.0
2017-Dec-09 12:59N 34°15' W 119°16'0 0.0
2017-Dec-09 12:29N 34°15' W 119°16'0 0.0
2017-Dec-09 11:57N 34°15' W 119°16'0 0.0
2017-Dec-09 11:29N 34°15' W 119°16'0 0.0
2017-Dec-09 11:00N 34°15' W 119°16'0 0.0
2017-Dec-09 10:30N 34°15' W 119°16'0 0.0
2017-Dec-09 10:00N 34°15' W 119°16'0 0.0
2017-Dec-09 09:30N 34°15' W 119°16'0 0.0
2017-Dec-09 09:00N 34°15' W 119°16'0 0.0
2017-Dec-09 08:28N 34°15' W 119°16'0 0.0
2017-Dec-09 08:00N 34°15' W 119°16'0 0.0
2017-Dec-09 07:25N 34°15' W 119°16'0 0.0
2017-Dec-09 07:00N 34°15' W 119°16'0 0.0
2017-Dec-09 06:28N 34°15' W 119°16'0 0.0
2017-Dec-09 06:00N 34°15' W 119°16'0 0.0
2017-Dec-09 05:30N 34°15' W 119°16'0 0.0
2017-Dec-09 05:00N 34°15' W 119°16'0 0.0
2017-Dec-09 04:24N 34°15' W 119°16'0 0.0
2017-Dec-09 03:56N 34°15' W 119°16'0 0.0
2017-Dec-09 03:28N 34°15' W 119°16'0 0.0
2017-Dec-09 02:54N 34°15' W 119°16'0 0.0
2017-Dec-09 02:29N 34°15' W 119°16'0 0.0
2017-Dec-09 01:57N 34°15' W 119°16'0 0.0
2017-Dec-09 01:30N 34°15' W 119°16'0 0.0
2017-Dec-09 00:59N 34°15' W 119°16'0 0.0
2017-Dec-09 00:27N 34°15' W 119°16'3 7.3
2017-Dec-09 00:00N 34°13' W 119°19'1021.0
2017-Dec-08 23:30N 34°06' W 119°29'611.0
2017-Dec-08 22:59N 34°03' W 119°35'610.8
2017-Dec-08 22:29N 34°01' W 119°41'1 2.1
2017-Dec-08 22:00N 34°02' W 119°42'0 0.0
2017-Dec-08 21:28N 34°02' W 119°42'0 0.0
2017-Dec-08 20:59N 34°02' W 119°42'0 0.0
2017-Dec-08 20:27N 34°02' W 119°42'0 0.0
2017-Dec-08 19:56N 34°02' W 119°42'0 1.1
2017-Dec-08 19:30N 34°02' W 119°42'1 1.0
2017-Dec-08 18:59N 34°02' W 119°41'2 4.7
2017-Dec-08 18:29N 34°02' W 119°38'612.4
2017-Dec-08 18:01N 34°04' W 119°32'1121.3
2017-Dec-08 17:30N 34°11' W 119°21'611.5
2017-Dec-08 16:59N 34°15' W 119°16'0 0.0
2017-Dec-08 16:30N 34°15' W 119°16'0 0.0
2017-Dec-08 15:59N 34°15' W 119°16'0 0.0
2017-Dec-08 15:31N 34°15' W 119°16'0 0.0
2017-Dec-08 15:00N 34°15' W 119°16'0 0.0
2017-Dec-08 14:30N 34°15' W 119°16'0 0.0
2017-Dec-08 14:00N 34°15' W 119°16'0 0.0
2017-Dec-08 13:28N 34°15' W 119°16'0 0.0
2017-Dec-08 13:00N 34°15' W 119°16'0 0.0
2017-Dec-08 12:29N 34°15' W 119°16'0 0.0
2017-Dec-08 12:00N 34°15' W 119°16'0 0.0
2017-Dec-08 11:30N 34°15' W 119°16'0 0.0
2017-Dec-08 11:00N 34°15' W 119°16'0 0.0
2017-Dec-08 10:31N 34°15' W 119°16'0 0.0
2017-Dec-08 09:59N 34°15' W 119°16'0 0.0
2017-Dec-08 09:31N 34°15' W 119°16'0 0.0
2017-Dec-08 09:00N 34°15' W 119°16'0 0.0
2017-Dec-08 08:30N 34°15' W 119°16'0 0.0
2017-Dec-08 08:00N 34°15' W 119°16'0 0.0
2017-Dec-08 07:30N 34°15' W 119°16'0 0.0
2017-Dec-08 07:01N 34°15' W 119°16'0 0.0
2017-Dec-08 06:30N 34°15' W 119°16'0 0.0
2017-Dec-08 06:00N 34°15' W 119°16'0 0.0
2017-Dec-08 05:30N 34°15' W 119°16'0 0.0
2017-Dec-08 05:00N 34°15' W 119°16'0 0.0
2017-Dec-08 04:27N 34°15' W 119°16'0 0.0
2017-Dec-08 04:00N 34°15' W 119°16'0 0.0
2017-Dec-08 03:30N 34°15' W 119°16'0 0.0
2017-Dec-08 02:56N 34°15' W 119°16'0 0.0
2017-Dec-08 02:30N 34°15' W 119°16'0 0.0
2017-Dec-08 01:55N 34°15' W 119°16'0 0.0
2017-Dec-08 01:29N 34°15' W 119°16'0 0.0
2017-Dec-08 01:00N 34°15' W 119°16'0 0.0
2017-Dec-08 00:30N 34°15' W 119°16'0 0.0
2017-Dec-08 00:00N 34°15' W 119°16'0 0.0
2017-Dec-07 23:28N 34°15' W 119°16'0 0.0
2017-Dec-07 23:00N 34°15' W 119°16'0 0.0
2017-Dec-07 22:25N 34°15' W 119°16'0 0.0
2017-Dec-07 22:00N 34°15' W 119°16'0 0.0
2017-Dec-07 21:30N 34°15' W 119°16'0 0.0
2017-Dec-07 20:58N 34°15' W 119°16'0 0.0
2017-Dec-07 20:25N 34°15' W 119°16'0 0.0
2017-Dec-07 20:00N 34°15' W 119°16'0 0.0
2017-Dec-07 19:29N 34°15' W 119°16'0 0.0
2017-Dec-07 19:00N 34°15' W 119°16'0 0.0
2017-Dec-07 18:30N 34°15' W 119°16'0 0.0
2017-Dec-07 18:00N 34°15' W 119°16'0 0.0
2017-Dec-07 17:29N 34°15' W 119°16'0 0.0
2017-Dec-07 17:00N 34°15' W 119°16'0 0.0
2017-Dec-07 16:30N 34°15' W 119°16'0 0.0
2017-Dec-07 16:00N 34°15' W 119°16'0 0.0
2017-Dec-07 15:30N 34°15' W 119°16'0 0.0
2017-Dec-07 15:00N 34°15' W 119°16'0 0.0
2017-Dec-07 14:31N 34°15' W 119°16'0 0.0
2017-Dec-07 14:00N 34°15' W 119°16'0 0.0
2017-Dec-07 13:30N 34°15' W 119°16'0 0.0
2017-Dec-07 12:59N 34°15' W 119°16'0 0.0
2017-Dec-07 12:30N 34°15' W 119°16'0 0.0
2017-Dec-07 12:00N 34°15' W 119°16'0 0.0
2017-Dec-07 11:30N 34°15' W 119°16'0 0.0
2017-Dec-07 11:00N 34°15' W 119°16'0 0.0
2017-Dec-07 10:30N 34°15' W 119°16'0 0.0
2017-Dec-07 10:00N 34°15' W 119°16'0 0.0
2017-Dec-07 09:31N 34°15' W 119°16'0 0.0
2017-Dec-07 09:00N 34°15' W 119°16'0 0.0
2017-Dec-07 08:30N 34°15' W 119°16'0 0.0
2017-Dec-07 08:00N 34°15' W 119°16'0 0.0
2017-Dec-07 07:30N 34°15' W 119°16'0 0.0
2017-Dec-07 07:00N 34°15' W 119°16'0 0.0
2017-Dec-07 06:30N 34°15' W 119°16'0 0.0
2017-Dec-07 05:58N 34°15' W 119°16'0 0.0
2017-Dec-07 05:27N 34°15' W 119°16'0 0.0
2017-Dec-07 05:00N 34°15' W 119°16'0 0.0
2017-Dec-07 04:30N 34°15' W 119°16'0 0.0
2017-Dec-07 04:00N 34°15' W 119°16'0 0.0
2017-Dec-07 03:30N 34°15' W 119°16'0 0.0
2017-Dec-07 02:59N 34°15' W 119°16'0 0.0
2017-Dec-07 02:30N 34°15' W 119°16'0 0.0
2017-Dec-07 02:00N 34°15' W 119°16'0 0.0
2017-Dec-07 01:30N 34°15' W 119°16'0 0.0
2017-Dec-07 01:00N 34°15' W 119°16'0 0.0
2017-Dec-07 00:30N 34°15' W 119°16'0 0.0
2017-Dec-06 23:59N 34°15' W 119°16'0 0.0
2017-Dec-06 23:30N 34°15' W 119°16'0 0.0
2017-Dec-06 23:00N 34°15' W 119°16'0 0.0
2017-Dec-06 22:30N 34°15' W 119°16'0 0.0
2017-Dec-06 22:00N 34°15' W 119°16'0 0.0
2017-Dec-06 21:30N 34°15' W 119°16'0 0.0
2017-Dec-06 21:00N 34°15' W 119°16'  
2017-Dec-04 10:27N 34°15' W 119°16'0 0.0
2017-Dec-04 09:59N 34°15' W 119°16'0 0.0
2017-Dec-04 09:29N 34°15' W 119°16'0 0.0
2017-Dec-04 09:00N 34°15' W 119°16'0 0.0
2017-Dec-04 08:31N 34°15' W 119°16'0 0.0
2017-Dec-04 08:00N 34°15' W 119°16'0 0.0
2017-Dec-04 07:30N 34°15' W 119°16'0 0.0
2017-Dec-04 07:01N 34°15' W 119°16'0 0.0
2017-Dec-04 06:30N 34°15' W 119°16'0 0.0
2017-Dec-04 06:00N 34°15' W 119°16'0 0.0
2017-Dec-04 05:30N 34°15' W 119°16'0 0.0
2017-Dec-04 05:01N 34°15' W 119°16'0 0.0
2017-Dec-04 04:30N 34°15' W 119°16'0 0.0
2017-Dec-04 04:00N 34°15' W 119°16'0 0.0
2017-Dec-04 03:30N 34°15' W 119°16'0 0.0
2017-Dec-04 03:00N 34°15' W 119°16'0 0.0
2017-Dec-04 02:30N 34°15' W 119°16'0 0.0
2017-Dec-04 02:01N 34°15' W 119°16'0 0.0
2017-Dec-04 01:30N 34°15' W 119°16'0 0.0
2017-Dec-04 00:58N 34°15' W 119°16'611.8
2017-Dec-04 00:29N 34°11' W 119°21'816.9
2017-Dec-04 00:00N 34°06' W 119°29'5 9.1
2017-Dec-03 23:29N 34°03' W 119°33'2 3.8
2017-Dec-03 23:00N 34°03' W 119°36'5 9.7
2017-Dec-03 22:29N 34°01' W 119°41'0 0.1
2017-Dec-03 22:00N 34°01' W 119°41'0 0.0
2017-Dec-03 21:30N 34°01' W 119°41'0 0.0
2017-Dec-03 21:00N 34°01' W 119°41'0 0.0
2017-Dec-03 20:29N 34°01' W 119°41'0 0.0
2017-Dec-03 20:00N 34°01' W 119°41'0 0.0
2017-Dec-03 19:30N 34°01' W 119°41'0 0.1
2017-Dec-03 19:00N 34°01' W 119°41'510.6
2017-Dec-03 18:30N 34°03' W 119°35'5 9.6
2017-Dec-03 17:59N 34°06' W 119°30'918.1
2017-Dec-03 17:30N 34°11' W 119°22'610.5
2017-Dec-03 16:56N 34°15' W 119°16'0 0.0
2017-Dec-03 16:30N 34°15' W 119°16'0 0.0
2017-Dec-03 15:56N 34°15' W 119°16'0 0.0
2017-Dec-03 15:30N 34°15' W 119°16'0 0.0
2017-Dec-03 15:00N 34°15' W 119°16'0 0.0
2017-Dec-03 14:30N 34°15' W 119°16'0 0.0
2017-Dec-03 13:59N 34°15' W 119°16'0 0.0
2017-Dec-03 13:27N 34°15' W 119°16'0 0.0
2017-Dec-03 13:00N 34°15' W 119°16'0 0.0
2017-Dec-03 12:30N 34°15' W 119°16'0 0.0
2017-Dec-03 12:00N 34°15' W 119°16'0 0.0
2017-Dec-03 11:28N 34°15' W 119°16'0 0.0
2017-Dec-03 10:58N 34°15' W 119°16'0 0.0
2017-Dec-03 10:30N 34°15' W 119°16'0 0.0
2017-Dec-03 10:00N 34°15' W 119°16'0 0.0
2017-Dec-03 09:30N 34°15' W 119°16'0 0.0
2017-Dec-03 09:00N 34°15' W 119°16'0 0.0
2017-Dec-03 08:30N 34°15' W 119°16'0 0.0
2017-Dec-03 07:58N 34°15' W 119°16'0 0.0
2017-Dec-03 07:30N 34°15' W 119°16'0 0.0
2017-Dec-03 07:00N 34°15' W 119°16'0 0.0
2017-Dec-03 06:29N 34°15' W 119°16'0 0.0
2017-Dec-03 06:00N 34°15' W 119°16'0 0.0
2017-Dec-03 05:30N 34°15' W 119°16'0 0.0
2017-Dec-03 04:59N 34°15' W 119°16'0 0.0
2017-Dec-03 04:30N 34°15' W 119°16'0 0.0
2017-Dec-03 04:00N 34°15' W 119°16'0 0.0
2017-Dec-03 03:29N 34°15' W 119°16'0 0.0
2017-Dec-03 03:00N 34°15' W 119°16'0 0.0
2017-Dec-03 02:28N 34°15' W 119°16'0 0.0
2017-Dec-03 01:55N 34°15' W 119°16'0 0.0
2017-Dec-03 01:25N 34°15' W 119°16'0 0.1
2017-Dec-03 01:00N 34°15' W 119°16'815.4
2017-Dec-03 00:30N 34°10' W 119°23'815.1
2017-Dec-03 00:00N 34°05' W 119°30'3 6.6
2017-Dec-02 23:29N 34°03' W 119°33'1 1.9
2017-Dec-02 23:00N 34°04' W 119°34'612.2
2017-Dec-02 22:30N 34°01' W 119°41'0 0.0
2017-Dec-02 22:00N 34°01' W 119°41'0 0.1
2017-Dec-02 21:30N 34°01' W 119°41'1 1.9
2017-Dec-02 21:00N 34°02' W 119°40'0 0.3
2017-Dec-02 20:30N 34°02' W 119°41'0 0.1
2017-Dec-02 20:00N 34°02' W 119°41'1 1.8
2017-Dec-02 19:30N 34°01' W 119°41'4 8.4
2017-Dec-02 19:00N 34°03' W 119°36'3 5.0
2017-Dec-02 18:30N 34°03' W 119°33'612.5
2017-Dec-02 18:01N 34°07' W 119°28'917.0
2017-Dec-02 17:30N 34°13' W 119°20'4 7.8
2017-Dec-02 17:00N 34°15' W 119°16'0 0.0
2017-Dec-02 16:29N 34°15' W 119°16'0 0.0
2017-Dec-02 15:58N 34°15' W 119°16'0 0.0
2017-Dec-02 15:30N 34°15' W 119°16'0 0.0
2017-Dec-02 14:59N 34°15' W 119°16'0 0.0
2017-Dec-02 14:30N 34°15' W 119°16'0 0.0
2017-Dec-02 13:57N 34°15' W 119°16'0 0.0
2017-Dec-02 13:29N 34°15' W 119°16'0 0.0
2017-Dec-02 13:00N 34°15' W 119°16'0 0.0
2017-Dec-02 12:29N 34°15' W 119°16'0 0.0
2017-Dec-02 11:59N 34°15' W 119°16'0 0.0
2017-Dec-02 11:30N 34°15' W 119°16'0 0.0
2017-Dec-02 11:00N 34°15' W 119°16'0 0.0
2017-Dec-02 10:30N 34°15' W 119°16'0 0.0
2017-Dec-02 10:00N 34°15' W 119°16'0 0.0
2017-Dec-02 09:29N 34°15' W 119°16'0 0.0
2017-Dec-02 09:00N 34°15' W 119°16'0 0.0
2017-Dec-02 08:30N 34°15' W 119°16'0 0.0
2017-Dec-02 08:00N 34°15' W 119°16'0 0.0
2017-Dec-02 07:30N 34°15' W 119°16'0 0.0
2017-Dec-02 07:00N 34°15' W 119°16'0 0.0
2017-Dec-02 06:30N 34°15' W 119°16'0 0.0
2017-Dec-02 05:59N 34°15' W 119°16'0 0.0
2017-Dec-02 05:30N 34°15' W 119°16'0 0.0
2017-Dec-02 05:00N 34°15' W 119°16'0 0.0
2017-Dec-02 04:30N 34°15' W 119°16'0 0.0
2017-Dec-02 04:00N 34°15' W 119°16'0 0.0
2017-Dec-02 03:30N 34°15' W 119°16'0 0.0
2017-Dec-02 03:00N 34°15' W 119°16'0 0.0
2017-Dec-02 02:30N 34°15' W 119°16'0 0.0
2017-Dec-02 02:00N 34°15' W 119°16'0 0.0
2017-Dec-02 01:29N 34°15' W 119°16'0 0.0
2017-Dec-02 01:00N 34°15' W 119°16'5 9.9
2017-Dec-02 00:30N 34°12' W 119°21'714.5
2017-Dec-01 23:59N 34°07' W 119°28'6 9.3
2017-Dec-01 23:19N 34°03' W 119°33'0 0.0
2017-Dec-01 23:00N 34°03' W 119°33'713.5
2017-Dec-01 22:30N 34°01' W 119°41'0 0.1
2017-Dec-01 22:00N 34°01' W 119°41'0 0.0
2017-Dec-01 21:29N 34°01' W 119°41'0 0.0
2017-Dec-01 21:00N 34°01' W 119°41'0 0.1
2017-Dec-01 20:30N 34°01' W 119°41'0 0.0
2017-Dec-01 20:00N 34°01' W 119°41'510.0
2017-Dec-01 19:30N 34°03' W 119°36'2 4.0
2017-Dec-01 19:00N 34°03' W 119°33'510.5
2017-Dec-01 18:30N 34°06' W 119°28'5 9.7
2017-Dec-01 17:58N 34°10' W 119°24'612.4
2017-Dec-01 17:30N 34°13' W 119°19'3 5.3
2017-Dec-01 17:00N 34°15' W 119°16'  

Dump ship's entire track history